sensor_id;sensor_type;location;lat;lon;timestamp;P1;durP1;ratioP1;P2;durP2;ratioP2
64099;SDS011;50385;61.766;38.054;2022-08-18T00:01:09;8.77;;;6.63;;
64099;SDS011;50385;61.766;38.054;2022-08-18T00:03:39;12.77;;;7.00;;
64099;SDS011;50385;61.766;38.054;2022-08-18T00:06:06;11.55;;;6.57;;
64099;SDS011;50385;61.766;38.054;2022-08-18T00:08:33;8.95;;;6.20;;
64099;SDS011;50385;61.766;38.054;2022-08-18T00:11:00;9.98;;;6.70;;
64099;SDS011;50385;61.766;38.054;2022-08-18T00:13:27;9.60;;;6.05;;
64099;SDS011;50385;61.766;38.054;2022-08-18T00:15:54;11.85;;;6.35;;
64099;SDS011;50385;61.766;38.054;2022-08-18T00:18:21;13.50;;;6.75;;
64099;SDS011;50385;61.766;38.054;2022-08-18T00:20:48;11.23;;;6.50;;
64099;SDS011;50385;61.766;38.054;2022-08-18T00:23:15;7.88;;;6.22;;
64099;SDS011;50385;61.766;38.054;2022-08-18T00:25:41;10.65;;;6.07;;
64099;SDS011;50385;61.766;38.054;2022-08-18T00:28:10;10.45;;;6.45;;
64099;SDS011;50385;61.766;38.054;2022-08-18T00:30:39;7.30;;;6.43;;
64099;SDS011;50385;61.766;38.054;2022-08-18T00:33:05;8.90;;;6.40;;
64099;SDS011;50385;61.766;38.054;2022-08-18T00:35:33;8.77;;;6.47;;
64099;SDS011;50385;61.766;38.054;2022-08-18T00:38:03;7.55;;;6.05;;
64099;SDS011;50385;61.766;38.054;2022-08-18T00:40:32;6.57;;;5.57;;
64099;SDS011;50385;61.766;38.054;2022-08-18T00:43:04;7.65;;;5.80;;
64099;SDS011;50385;61.766;38.054;2022-08-18T00:45:34;8.50;;;5.97;;
64099;SDS011;50385;61.766;38.054;2022-08-18T00:48:05;9.40;;;5.97;;
64099;SDS011;50385;61.766;38.054;2022-08-18T00:50:54;9.80;;;6.18;;
64099;SDS011;50385;61.766;38.054;2022-08-18T00:53:25;9.65;;;5.95;;
64099;SDS011;50385;61.766;38.054;2022-08-18T00:55:59;6.63;;;5.90;;
64099;SDS011;50385;61.766;38.054;2022-08-18T00:58:36;6.55;;;5.72;;
64099;SDS011;50385;61.766;38.054;2022-08-18T01:01:08;7.25;;;5.60;;
64099;SDS011;50385;61.766;38.054;2022-08-18T01:03:37;10.45;;;6.20;;
64099;SDS011;50385;61.766;38.054;2022-08-18T01:06:15;9.75;;;5.95;;
64099;SDS011;50385;61.766;38.054;2022-08-18T01:08:49;10.77;;;6.28;;
64099;SDS011;50385;61.766;38.054;2022-08-18T01:11:16;9.77;;;5.70;;
64099;SDS011;50385;61.766;38.054;2022-08-18T01:13:43;7.05;;;5.30;;
64099;SDS011;50385;61.766;38.054;2022-08-18T01:16:10;11.95;;;5.63;;
64099;SDS011;50385;61.766;38.054;2022-08-18T01:18:56;7.35;;;5.47;;
64099;SDS011;50385;61.766;38.054;2022-08-18T01:21:42;8.35;;;5.13;;
64099;SDS011;50385;61.766;38.054;2022-08-18T01:24:16;7.40;;;5.18;;
64099;SDS011;50385;61.766;38.054;2022-08-18T01:27:09;10.60;;;5.07;;
64099;SDS011;50385;61.766;38.054;2022-08-18T01:29:36;6.03;;;5.40;;
64099;SDS011;50385;61.766;38.054;2022-08-18T01:32:03;9.15;;;5.20;;
64099;SDS011;50385;61.766;38.054;2022-08-18T01:34:30;6.53;;;4.85;;
64099;SDS011;50385;61.766;38.054;2022-08-18T01:36:57;14.60;;;5.80;;
64099;SDS011;50385;61.766;38.054;2022-08-18T01:39:24;8.30;;;5.57;;
64099;SDS011;50385;61.766;38.054;2022-08-18T01:41:51;7.70;;;5.80;;
64099;SDS011;50385;61.766;38.054;2022-08-18T01:44:18;8.07;;;5.07;;
64099;SDS011;50385;61.766;38.054;2022-08-18T01:46:45;6.22;;;5.30;;
64099;SDS011;50385;61.766;38.054;2022-08-18T01:50:16;8.30;;;4.90;;
64099;SDS011;50385;61.766;38.054;2022-08-18T01:53:25;10.15;;;5.28;;
64099;SDS011;50385;61.766;38.054;2022-08-18T01:56:15;11.80;;;6.82;;
64099;SDS011;50385;61.766;38.054;2022-08-18T02:01:42;7.70;;;5.45;;
64099;SDS011;50385;61.766;38.054;2022-08-18T02:04:11;11.18;;;5.53;;
64099;SDS011;50385;61.766;38.054;2022-08-18T02:06:38;8.27;;;4.78;;
64099;SDS011;50385;61.766;38.054;2022-08-18T02:09:05;10.32;;;5.93;;
64099;SDS011;50385;61.766;38.054;2022-08-18T02:11:32;8.05;;;4.80;;
64099;SDS011;50385;61.766;38.054;2022-08-18T02:13:59;7.00;;;5.20;;
64099;SDS011;50385;61.766;38.054;2022-08-18T02:16:26;6.80;;;5.05;;
64099;SDS011;50385;61.766;38.054;2022-08-18T02:19:08;5.47;;;4.85;;
64099;SDS011;50385;61.766;38.054;2022-08-18T02:21:48;8.38;;;5.20;;
64099;SDS011;50385;61.766;38.054;2022-08-18T02:24:21;7.20;;;5.18;;
64099;SDS011;50385;61.766;38.054;2022-08-18T02:26:50;7.47;;;5.13;;
64099;SDS011;50385;61.766;38.054;2022-08-18T02:29:25;6.63;;;5.15;;
64099;SDS011;50385;61.766;38.054;2022-08-18T02:31:52;6.50;;;4.60;;
64099;SDS011;50385;61.766;38.054;2022-08-18T02:34:20;16.25;;;5.43;;
64099;SDS011;50385;61.766;38.054;2022-08-18T02:36:50;7.03;;;4.70;;
64099;SDS011;50385;61.766;38.054;2022-08-18T02:39:19;7.43;;;5.32;;
64099;SDS011;50385;61.766;38.054;2022-08-18T02:42:09;8.60;;;4.40;;
64099;SDS011;50385;61.766;38.054;2022-08-18T02:44:35;5.10;;;4.60;;
64099;SDS011;50385;61.766;38.054;2022-08-18T02:47:03;9.88;;;4.50;;
64099;SDS011;50385;61.766;38.054;2022-08-18T02:49:30;9.48;;;6.47;;
64099;SDS011;50385;61.766;38.054;2022-08-18T02:51:57;6.50;;;5.75;;
64099;SDS011;50385;61.766;38.054;2022-08-18T02:54:24;7.38;;;5.00;;
64099;SDS011;50385;61.766;38.054;2022-08-18T02:56:51;9.00;;;5.65;;
64099;SDS011;50385;61.766;38.054;2022-08-18T02:59:20;11.68;;;5.35;;
64099;SDS011;50385;61.766;38.054;2022-08-18T03:01:50;10.90;;;5.20;;
64099;SDS011;50385;61.766;38.054;2022-08-18T03:04:21;10.07;;;5.00;;
64099;SDS011;50385;61.766;38.054;2022-08-18T03:06:53;6.75;;;5.80;;
64099;SDS011;50385;61.766;38.054;2022-08-18T03:09:20;5.75;;;5.00;;
64099;SDS011;50385;61.766;38.054;2022-08-18T03:11:47;6.85;;;5.43;;
64099;SDS011;50385;61.766;38.054;2022-08-18T03:14:14;9.15;;;5.13;;
64099;SDS011;50385;61.766;38.054;2022-08-18T03:16:43;7.82;;;4.85;;
64099;SDS011;50385;61.766;38.054;2022-08-18T03:19:12;10.77;;;4.90;;
64099;SDS011;50385;61.766;38.054;2022-08-18T03:21:43;6.85;;;4.75;;
64099;SDS011;50385;61.766;38.054;2022-08-18T03:24:14;11.32;;;5.38;;
64099;SDS011;50385;61.766;38.054;2022-08-18T03:26:43;8.57;;;4.78;;
64099;SDS011;50385;61.766;38.054;2022-08-18T03:29:10;7.55;;;5.22;;
64099;SDS011;50385;61.766;38.054;2022-08-18T03:31:40;6.32;;;4.47;;
64099;SDS011;50385;61.766;38.054;2022-08-18T03:34:08;6.75;;;5.55;;
64099;SDS011;50385;61.766;38.054;2022-08-18T03:36:36;8.05;;;5.00;;
64099;SDS011;50385;61.766;38.054;2022-08-18T03:39:04;9.85;;;4.60;;
64099;SDS011;50385;61.766;38.054;2022-08-18T03:41:32;6.50;;;4.65;;
64099;SDS011;50385;61.766;38.054;2022-08-18T03:44:01;10.23;;;5.00;;
64099;SDS011;50385;61.766;38.054;2022-08-18T03:46:33;12.68;;;5.07;;
64099;SDS011;50385;61.766;38.054;2022-08-18T03:49:00;6.38;;;4.70;;
64099;SDS011;50385;61.766;38.054;2022-08-18T03:51:30;6.05;;;4.80;;
64099;SDS011;50385;61.766;38.054;2022-08-18T03:54:02;6.22;;;4.65;;
64099;SDS011;50385;61.766;38.054;2022-08-18T03:56:31;10.35;;;5.32;;
64099;SDS011;50385;61.766;38.054;2022-08-18T03:59:05;8.13;;;5.28;;
64099;SDS011;50385;61.766;38.054;2022-08-18T04:01:36;9.40;;;5.65;;
64099;SDS011;50385;61.766;38.054;2022-08-18T04:04:06;7.03;;;4.95;;
64099;SDS011;50385;61.766;38.054;2022-08-18T04:06:39;9.52;;;4.90;;
64099;SDS011;50385;61.766;38.054;2022-08-18T04:09:17;11.63;;;5.20;;
64099;SDS011;50385;61.766;38.054;2022-08-18T04:11:44;9.10;;;5.35;;
64099;SDS011;50385;61.766;38.054;2022-08-18T04:14:12;6.45;;;5.35;;
64099;SDS011;50385;61.766;38.054;2022-08-18T04:16:41;7.20;;;5.20;;
64099;SDS011;50385;61.766;38.054;2022-08-18T04:19:08;8.80;;;5.13;;
64099;SDS011;50385;61.766;38.054;2022-08-18T04:21:39;11.73;;;5.28;;
64099;SDS011;50385;61.766;38.054;2022-08-18T04:24:07;7.43;;;5.05;;
64099;SDS011;50385;61.766;38.054;2022-08-18T04:26:37;6.07;;;5.03;;
64099;SDS011;50385;61.766;38.054;2022-08-18T04:29:07;9.13;;;5.40;;
64099;SDS011;50385;61.766;38.054;2022-08-18T04:31:34;11.35;;;5.15;;
64099;SDS011;50385;61.766;38.054;2022-08-18T04:34:01;6.43;;;4.43;;
64099;SDS011;50385;61.766;38.054;2022-08-18T04:36:29;10.00;;;4.65;;
64099;SDS011;50385;61.766;38.054;2022-08-18T04:38:59;9.32;;;5.38;;
64099;SDS011;50385;61.766;38.054;2022-08-18T04:41:27;6.85;;;5.05;;
64099;SDS011;50385;61.766;38.054;2022-08-18T04:43:59;8.38;;;4.90;;
64099;SDS011;50385;61.766;38.054;2022-08-18T04:46:51;12.70;;;5.45;;
64099;SDS011;50385;61.766;38.054;2022-08-18T04:49:28;10.60;;;4.60;;
64099;SDS011;50385;61.766;38.054;2022-08-18T04:52:12;9.65;;;5.45;;
64099;SDS011;50385;61.766;38.054;2022-08-18T04:54:58;7.72;;;5.15;;
64099;SDS011;50385;61.766;38.054;2022-08-18T04:57:26;6.57;;;5.13;;
64099;SDS011;50385;61.766;38.054;2022-08-18T05:00:03;6.18;;;5.15;;
64099;SDS011;50385;61.766;38.054;2022-08-18T05:02:36;5.82;;;5.13;;
64099;SDS011;50385;61.766;38.054;2022-08-18T05:05:07;8.60;;;5.47;;
64099;SDS011;50385;61.766;38.054;2022-08-18T05:07:54;15.55;;;4.70;;
64099;SDS011;50385;61.766;38.054;2022-08-18T05:10:23;10.63;;;5.25;;
64099;SDS011;50385;61.766;38.054;2022-08-18T05:13:01;6.05;;;4.97;;
64099;SDS011;50385;61.766;38.054;2022-08-18T05:15:38;9.90;;;4.80;;
64099;SDS011;50385;61.766;38.054;2022-08-18T05:18:16;9.00;;;4.97;;
64099;SDS011;50385;61.766;38.054;2022-08-18T05:20:46;6.68;;;5.10;;
64099;SDS011;50385;61.766;38.054;2022-08-18T05:23:13;5.70;;;4.85;;
64099;SDS011;50385;61.766;38.054;2022-08-18T05:25:42;9.60;;;4.93;;
64099;SDS011;50385;61.766;38.054;2022-08-18T05:28:08;6.85;;;5.07;;
64099;SDS011;50385;61.766;38.054;2022-08-18T05:30:36;5.72;;;4.90;;
64099;SDS011;50385;61.766;38.054;2022-08-18T05:33:02;5.95;;;5.00;;
64099;SDS011;50385;61.766;38.054;2022-08-18T05:35:31;5.45;;;4.72;;
64099;SDS011;50385;61.766;38.054;2022-08-18T05:41:11;7.85;;;4.57;;
64099;SDS011;50385;61.766;38.054;2022-08-18T05:43:39;7.15;;;4.88;;
64099;SDS011;50385;61.766;38.054;2022-08-18T05:46:11;8.93;;;5.13;;
64099;SDS011;50385;61.766;38.054;2022-08-18T05:48:42;10.45;;;4.68;;
64099;SDS011;50385;61.766;38.054;2022-08-18T05:51:13;10.88;;;4.90;;
64099;SDS011;50385;61.766;38.054;2022-08-18T05:53:47;8.38;;;4.80;;
64099;SDS011;50385;61.766;38.054;2022-08-18T05:56:37;7.22;;;4.60;;
64099;SDS011;50385;61.766;38.054;2022-08-18T05:59:32;7.65;;;5.20;;
64099;SDS011;50385;61.766;38.054;2022-08-18T06:02:11;8.18;;;4.95;;
64099;SDS011;50385;61.766;38.054;2022-08-18T06:04:56;19.63;;;4.93;;
64099;SDS011;50385;61.766;38.054;2022-08-18T06:07:36;9.07;;;5.15;;
64099;SDS011;50385;61.766;38.054;2022-08-18T06:10:10;10.07;;;4.97;;
64099;SDS011;50385;61.766;38.054;2022-08-18T06:12:48;8.45;;;5.20;;
64099;SDS011;50385;61.766;38.054;2022-08-18T06:26:09;10.90;;;4.60;;
64099;SDS011;50385;61.766;38.054;2022-08-18T06:28:45;8.88;;;4.78;;
64099;SDS011;50385;61.766;38.054;2022-08-18T06:34:30;7.82;;;4.97;;
64099;SDS011;50385;61.766;38.054;2022-08-18T06:37:25;5.93;;;4.80;;
64099;SDS011;50385;61.766;38.054;2022-08-18T06:39:56;6.38;;;4.78;;
64099;SDS011;50385;61.766;38.054;2022-08-18T06:42:24;8.18;;;4.90;;
64099;SDS011;50385;61.766;38.054;2022-08-18T06:45:04;7.93;;;4.72;;
64099;SDS011;50385;61.766;38.054;2022-08-18T06:47:39;13.18;;;4.85;;
64099;SDS011;50385;61.766;38.054;2022-08-18T06:50:21;12.77;;;5.90;;
64099;SDS011;50385;61.766;38.054;2022-08-18T06:55:47;8.68;;;5.13;;
64099;SDS011;50385;61.766;38.054;2022-08-18T06:58:29;6.47;;;5.18;;
64099;SDS011;50385;61.766;38.054;2022-08-18T07:01:03;10.68;;;5.65;;
64099;SDS011;50385;61.766;38.054;2022-08-18T07:03:44;7.55;;;5.50;;
64099;SDS011;50385;61.766;38.054;2022-08-18T07:08:52;13.48;;;6.05;;
64099;SDS011;50385;61.766;38.054;2022-08-18T07:11:31;8.43;;;5.88;;
64099;SDS011;50385;61.766;38.054;2022-08-18T07:14:20;7.75;;;5.93;;
64099;SDS011;50385;61.766;38.054;2022-08-18T07:20:20;8.15;;;6.30;;
64099;SDS011;50385;61.766;38.054;2022-08-18T07:22:55;8.70;;;6.03;;
64099;SDS011;50385;61.766;38.054;2022-08-18T07:25:30;16.35;;;6.72;;
64099;SDS011;50385;61.766;38.054;2022-08-18T07:28:01;9.32;;;6.45;;
64099;SDS011;50385;61.766;38.054;2022-08-18T07:30:30;8.65;;;6.53;;
64099;SDS011;50385;61.766;38.054;2022-08-18T07:33:12;9.15;;;7.47;;
64099;SDS011;50385;61.766;38.054;2022-08-18T07:36:02;14.82;;;8.02;;
64099;SDS011;50385;61.766;38.054;2022-08-18T07:47:16;22.33;;;8.38;;
64099;SDS011;50385;61.766;38.054;2022-08-18T07:49:55;12.77;;;8.60;;
64099;SDS011;50385;61.766;38.054;2022-08-18T07:52:27;16.48;;;8.63;;
64099;SDS011;50385;61.766;38.054;2022-08-18T07:55:27;18.98;;;8.68;;
64099;SDS011;50385;61.766;38.054;2022-08-18T08:01:02;20.98;;;8.43;;
64099;SDS011;50385;61.766;38.054;2022-08-18T08:04:07;22.42;;;9.18;;
64099;SDS011;50385;61.766;38.054;2022-08-18T08:06:58;17.23;;;9.05;;
64099;SDS011;50385;61.766;38.054;2022-08-18T08:12:30;19.92;;;9.20;;
64099;SDS011;50385;61.766;38.054;2022-08-18T08:15:03;13.70;;;9.75;;
64099;SDS011;50385;61.766;38.054;2022-08-18T08:17:54;14.90;;;9.63;;
64099;SDS011;50385;61.766;38.054;2022-08-18T08:20:32;16.25;;;9.52;;
64099;SDS011;50385;61.766;38.054;2022-08-18T08:23:19;15.02;;;10.10;;
64099;SDS011;50385;61.766;38.054;2022-08-18T08:37:21;14.95;;;9.32;;
64099;SDS011;50385;61.766;38.054;2022-08-18T08:40:04;14.98;;;9.55;;
64099;SDS011;50385;61.766;38.054;2022-08-18T08:42:42;17.40;;;9.00;;
64099;SDS011;50385;61.766;38.054;2022-08-18T08:45:24;14.27;;;9.43;;
64099;SDS011;50385;61.766;38.054;2022-08-18T08:50:44;16.60;;;9.80;;
64099;SDS011;50385;61.766;38.054;2022-08-18T08:53:28;43.80;;;10.13;;
64099;SDS011;50385;61.766;38.054;2022-08-18T08:56:06;32.85;;;10.43;;
64099;SDS011;50385;61.766;38.054;2022-08-18T09:01:32;13.80;;;9.27;;
64099;SDS011;50385;61.766;38.054;2022-08-18T09:06:43;15.10;;;9.13;;
64099;SDS011;50385;61.766;38.054;2022-08-18T09:09:29;16.40;;;10.15;;
64099;SDS011;50385;61.766;38.054;2022-08-18T09:20:54;13.57;;;8.75;;
64099;SDS011;50385;61.766;38.054;2022-08-18T09:23:31;13.63;;;8.15;;
64099;SDS011;50385;61.766;38.054;2022-08-18T09:26:20;17.98;;;8.05;;
64099;SDS011;50385;61.766;38.054;2022-08-18T09:28:53;12.02;;;7.93;;
64099;SDS011;50385;61.766;38.054;2022-08-18T09:31:22;16.50;;;9.02;;
64099;SDS011;50385;61.766;38.054;2022-08-18T09:36:26;22.00;;;8.02;;
64099;SDS011;50385;61.766;38.054;2022-08-18T09:42:14;8.55;;;7.10;;
64099;SDS011;50385;61.766;38.054;2022-08-18T09:49:53;12.38;;;7.60;;
64099;SDS011;50385;61.766;38.054;2022-08-18T09:57:45;11.95;;;8.07;;
64099;SDS011;50385;61.766;38.054;2022-08-18T10:00:31;10.27;;;7.57;;
64099;SDS011;50385;61.766;38.054;2022-08-18T10:03:03;15.55;;;7.75;;
64099;SDS011;50385;61.766;38.054;2022-08-18T10:05:37;14.75;;;7.18;;
64099;SDS011;50385;61.766;38.054;2022-08-18T10:19:21;19.20;;;7.30;;
64099;SDS011;50385;61.766;38.054;2022-08-18T10:22:12;24.27;;;7.68;;
64099;SDS011;50385;61.766;38.054;2022-08-18T10:24:44;26.42;;;7.75;;
64099;SDS011;50385;61.766;38.054;2022-08-18T10:32:55;24.17;;;7.90;;
64099;SDS011;50385;61.766;38.054;2022-08-18T10:38:09;10.45;;;7.45;;
64099;SDS011;50385;61.766;38.054;2022-08-18T10:41:30;11.93;;;7.40;;
64099;SDS011;50385;61.766;38.054;2022-08-18T10:43:43;11.98;;;7.03;;
64099;SDS011;50385;61.766;38.054;2022-08-18T10:46:20;10.13;;;6.88;;
64099;SDS011;50385;61.766;38.054;2022-08-18T10:48:56;11.60;;;7.05;;
64099;SDS011;50385;61.766;38.054;2022-08-18T10:51:48;19.35;;;7.47;;
64099;SDS011;50385;61.766;38.054;2022-08-18T10:54:27;11.30;;;7.20;;
64099;SDS011;50385;61.766;38.054;2022-08-18T11:00:09;10.25;;;7.20;;
64099;SDS011;50385;61.766;38.054;2022-08-18T11:02:57;10.25;;;6.63;;
64099;SDS011;50385;61.766;38.054;2022-08-18T11:05:36;9.10;;;7.20;;
64099;SDS011;50385;61.766;38.054;2022-08-18T11:08:03;9.93;;;7.35;;
64099;SDS011;50385;61.766;38.054;2022-08-18T11:10:39;10.10;;;7.10;;
64099;SDS011;50385;61.766;38.054;2022-08-18T11:16:11;8.70;;;6.57;;
64099;SDS011;50385;61.766;38.054;2022-08-18T11:18:48;11.80;;;6.18;;
64099;SDS011;50385;61.766;38.054;2022-08-18T11:21:24;7.95;;;6.50;;
64099;SDS011;50385;61.766;38.054;2022-08-18T11:24:03;17.92;;;6.45;;
64099;SDS011;50385;61.766;38.054;2022-08-18T11:26:31;20.27;;;6.63;;
64099;SDS011;50385;61.766;38.054;2022-08-18T11:29:15;17.52;;;5.38;;
64099;SDS011;50385;61.766;38.054;2022-08-18T11:31:56;8.32;;;6.00;;
64099;SDS011;50385;61.766;38.054;2022-08-18T11:34:36;8.13;;;6.00;;
64099;SDS011;50385;61.766;38.054;2022-08-18T11:37:19;31.52;;;6.50;;
64099;SDS011;50385;61.766;38.054;2022-08-18T11:40:02;10.70;;;5.57;;
64099;SDS011;50385;61.766;38.054;2022-08-18T11:42:33;13.93;;;5.90;;
64099;SDS011;50385;61.766;38.054;2022-08-18T11:45:03;13.80;;;5.72;;
64099;SDS011;50385;61.766;38.054;2022-08-18T11:50:48;12.13;;;5.90;;
64099;SDS011;50385;61.766;38.054;2022-08-18T11:53:39;24.58;;;5.53;;
64099;SDS011;50385;61.766;38.054;2022-08-18T12:01:54;12.77;;;5.50;;
64099;SDS011;50385;61.766;38.054;2022-08-18T12:04:22;10.50;;;5.30;;
64099;SDS011;50385;61.766;38.054;2022-08-18T12:07:01;14.88;;;5.40;;
64099;SDS011;50385;61.766;38.054;2022-08-18T12:09:44;11.57;;;5.10;;
64099;SDS011;50385;61.766;38.054;2022-08-18T12:12:17;15.73;;;5.32;;
64099;SDS011;50385;61.766;38.054;2022-08-18T12:17:42;14.07;;;5.38;;
64099;SDS011;50385;61.766;38.054;2022-08-18T12:23:03;7.22;;;5.00;;
64099;SDS011;50385;61.766;38.054;2022-08-18T12:25:31;12.18;;;4.80;;
64099;SDS011;50385;61.766;38.054;2022-08-18T12:27:58;8.32;;;5.20;;
64099;SDS011;50385;61.766;38.054;2022-08-18T12:30:24;15.63;;;5.70;;
64099;SDS011;50385;61.766;38.054;2022-08-18T12:32:51;9.68;;;5.30;;
64099;SDS011;50385;61.766;38.054;2022-08-18T12:35:19;20.50;;;5.30;;
64099;SDS011;50385;61.766;38.054;2022-08-18T12:37:46;8.63;;;5.40;;
64099;SDS011;50385;61.766;38.054;2022-08-18T12:40:32;7.72;;;5.32;;
64099;SDS011;50385;61.766;38.054;2022-08-18T12:42:59;9.43;;;4.78;;
64099;SDS011;50385;61.766;38.054;2022-08-18T12:45:26;13.82;;;4.70;;
64099;SDS011;50385;61.766;38.054;2022-08-18T12:47:53;28.30;;;5.07;;
64099;SDS011;50385;61.766;38.054;2022-08-18T12:50:20;13.57;;;4.32;;
64099;SDS011;50385;61.766;38.054;2022-08-18T12:52:47;6.55;;;4.10;;
64099;SDS011;50385;61.766;38.054;2022-08-18T12:55:14;9.85;;;4.22;;
64099;SDS011;50385;61.766;38.054;2022-08-18T12:57:41;41.00;;;5.03;;
64099;SDS011;50385;61.766;38.054;2022-08-18T13:00:10;6.45;;;4.35;;
64099;SDS011;50385;61.766;38.054;2022-08-18T13:02:37;7.05;;;4.30;;
64099;SDS011;50385;61.766;38.054;2022-08-18T13:05:04;8.02;;;4.47;;
64099;SDS011;50385;61.766;38.054;2022-08-18T13:07:32;19.60;;;4.32;;
64099;SDS011;50385;61.766;38.054;2022-08-18T13:09:59;9.60;;;4.13;;
64099;SDS011;50385;61.766;38.054;2022-08-18T13:12:27;14.50;;;4.95;;
64099;SDS011;50385;61.766;38.054;2022-08-18T13:14:53;6.95;;;4.35;;
64099;SDS011;50385;61.766;38.054;2022-08-18T13:17:20;5.32;;;4.07;;
64099;SDS011;50385;61.766;38.054;2022-08-18T13:19:48;8.88;;;4.57;;
64099;SDS011;50385;61.766;38.054;2022-08-18T13:22:17;16.02;;;4.50;;
64099;SDS011;50385;61.766;38.054;2022-08-18T13:24:45;7.88;;;4.60;;
64099;SDS011;50385;61.766;38.054;2022-08-18T13:27:16;17.65;;;5.05;;
64099;SDS011;50385;61.766;38.054;2022-08-18T13:29:45;10.30;;;4.38;;
64099;SDS011;50385;61.766;38.054;2022-08-18T13:32:12;10.82;;;5.60;;
64099;SDS011;50385;61.766;38.054;2022-08-18T13:34:41;9.43;;;5.15;;
64099;SDS011;50385;61.766;38.054;2022-08-18T13:37:08;10.40;;;5.93;;
64099;SDS011;50385;61.766;38.054;2022-08-18T13:39:35;22.00;;;5.70;;
64099;SDS011;50385;61.766;38.054;2022-08-18T13:42:03;16.73;;;6.03;;
64099;SDS011;50385;61.766;38.054;2022-08-18T13:44:31;18.05;;;6.18;;
64099;SDS011;50385;61.766;38.054;2022-08-18T13:46:58;11.60;;;6.22;;
64099;SDS011;50385;61.766;38.054;2022-08-18T13:49:25;8.85;;;5.78;;
64099;SDS011;50385;61.766;38.054;2022-08-18T13:51:52;8.50;;;6.10;;
64099;SDS011;50385;61.766;38.054;2022-08-18T13:54:25;11.45;;;6.32;;
64099;SDS011;50385;61.766;38.054;2022-08-18T13:56:58;6.68;;;5.70;;
64099;SDS011;50385;61.766;38.054;2022-08-18T13:59:26;10.75;;;5.40;;
64099;SDS011;50385;61.766;38.054;2022-08-18T14:01:57;18.13;;;5.28;;
64099;SDS011;50385;61.766;38.054;2022-08-18T14:04:25;7.53;;;5.25;;
64099;SDS011;50385;61.766;38.054;2022-08-18T14:06:53;11.07;;;4.55;;
64099;SDS011;50385;61.766;38.054;2022-08-18T14:09:20;8.63;;;5.10;;
64099;SDS011;50385;61.766;38.054;2022-08-18T14:11:47;8.27;;;5.20;;
64099;SDS011;50385;61.766;38.054;2022-08-18T14:14:14;8.75;;;5.40;;
64099;SDS011;50385;61.766;38.054;2022-08-18T14:16:42;12.20;;;6.20;;
64099;SDS011;50385;61.766;38.054;2022-08-18T14:19:09;14.68;;;5.13;;
64099;SDS011;50385;61.766;38.054;2022-08-18T14:21:54;8.70;;;4.97;;
64099;SDS011;50385;61.766;38.054;2022-08-18T14:24:40;9.45;;;5.00;;
64099;SDS011;50385;61.766;38.054;2022-08-18T14:29:56;8.32;;;5.30;;
64099;SDS011;50385;61.766;38.054;2022-08-18T14:32:26;11.52;;;4.63;;
64099;SDS011;50385;61.766;38.054;2022-08-18T14:34:58;13.00;;;5.45;;
64099;SDS011;50385;61.766;38.054;2022-08-18T14:37:28;8.35;;;4.93;;
64099;SDS011;50385;61.766;38.054;2022-08-18T14:39:55;8.68;;;4.75;;
64099;SDS011;50385;61.766;38.054;2022-08-18T14:42:23;14.80;;;4.78;;
64099;SDS011;50385;61.766;38.054;2022-08-18T14:44:50;6.43;;;4.00;;
64099;SDS011;50385;61.766;38.054;2022-08-18T14:47:17;15.15;;;4.05;;
64099;SDS011;50385;61.766;38.054;2022-08-18T14:49:44;20.60;;;4.25;;
64099;SDS011;50385;61.766;38.054;2022-08-18T14:52:12;11.23;;;4.22;;
64099;SDS011;50385;61.766;38.054;2022-08-18T14:54:39;10.70;;;3.80;;
64099;SDS011;50385;61.766;38.054;2022-08-18T14:57:06;10.43;;;3.75;;
64099;SDS011;50385;61.766;38.054;2022-08-18T14:59:37;8.95;;;3.50;;
64099;SDS011;50385;61.766;38.054;2022-08-18T15:02:04;10.68;;;3.70;;
64099;SDS011;50385;61.766;38.054;2022-08-18T15:04:33;8.02;;;3.60;;
64099;SDS011;50385;61.766;38.054;2022-08-18T15:07:00;9.18;;;3.65;;
64099;SDS011;50385;61.766;38.054;2022-08-18T15:09:27;7.35;;;3.83;;
64099;SDS011;50385;61.766;38.054;2022-08-18T15:11:57;6.28;;;3.92;;
64099;SDS011;50385;61.766;38.054;2022-08-18T15:14:26;26.23;;;3.83;;
64099;SDS011;50385;61.766;38.054;2022-08-18T15:16:56;9.85;;;3.83;;
64099;SDS011;50385;61.766;38.054;2022-08-18T15:19:24;9.48;;;3.92;;
64099;SDS011;50385;61.766;38.054;2022-08-18T15:21:51;6.35;;;3.63;;
64099;SDS011;50385;61.766;38.054;2022-08-18T15:24:50;8.52;;;4.85;;
64099;SDS011;50385;61.766;38.054;2022-08-18T15:27:37;8.05;;;4.13;;
64099;SDS011;50385;61.766;38.054;2022-08-18T15:30:14;7.43;;;3.80;;
64099;SDS011;50385;61.766;38.054;2022-08-18T15:32:42;7.10;;;3.80;;
64099;SDS011;50385;61.766;38.054;2022-08-18T15:35:12;9.73;;;3.90;;
64099;SDS011;50385;61.766;38.054;2022-08-18T15:37:43;6.03;;;4.07;;
64099;SDS011;50385;61.766;38.054;2022-08-18T15:40:15;7.80;;;4.20;;
64099;SDS011;50385;61.766;38.054;2022-08-18T15:42:48;7.18;;;3.92;;
64099;SDS011;50385;61.766;38.054;2022-08-18T15:45:17;9.75;;;4.22;;
64099;SDS011;50385;61.766;38.054;2022-08-18T15:47:45;10.48;;;4.38;;
64099;SDS011;50385;61.766;38.054;2022-08-18T15:50:14;7.90;;;3.90;;
64099;SDS011;50385;61.766;38.054;2022-08-18T15:52:54;6.63;;;4.32;;
64099;SDS011;50385;61.766;38.054;2022-08-18T15:55:24;7.88;;;4.20;;
64099;SDS011;50385;61.766;38.054;2022-08-18T15:57:52;7.60;;;4.63;;
64099;SDS011;50385;61.766;38.054;2022-08-18T16:00:23;5.82;;;3.92;;
64099;SDS011;50385;61.766;38.054;2022-08-18T16:02:54;13.77;;;4.07;;
64099;SDS011;50385;61.766;38.054;2022-08-18T16:05:27;6.20;;;4.43;;
64099;SDS011;50385;61.766;38.054;2022-08-18T16:07:56;8.82;;;4.40;;
64099;SDS011;50385;61.766;38.054;2022-08-18T16:10:24;11.05;;;4.45;;
64099;SDS011;50385;61.766;38.054;2022-08-18T16:18:01;6.18;;;4.55;;
64099;SDS011;50385;61.766;38.054;2022-08-18T16:20:33;13.75;;;4.50;;
64099;SDS011;50385;61.766;38.054;2022-08-18T16:23:00;11.65;;;4.13;;
64099;SDS011;50385;61.766;38.054;2022-08-18T16:25:28;7.20;;;4.50;;
64099;SDS011;50385;61.766;38.054;2022-08-18T16:28:08;10.85;;;4.22;;
64099;SDS011;50385;61.766;38.054;2022-08-18T16:30:39;150.93;;;8.98;;
64099;SDS011;50385;61.766;38.054;2022-08-18T16:33:12;27.05;;;4.97;;
64099;SDS011;50385;61.766;38.054;2022-08-18T16:35:39;18.63;;;4.35;;
64099;SDS011;50385;61.766;38.054;2022-08-18T16:38:07;17.05;;;4.43;;
64099;SDS011;50385;61.766;38.054;2022-08-18T16:40:35;15.27;;;4.28;;
64099;SDS011;50385;61.766;38.054;2022-08-18T16:43:03;15.30;;;4.22;;
64099;SDS011;50385;61.766;38.054;2022-08-18T16:45:30;17.27;;;4.28;;
64099;SDS011;50385;61.766;38.054;2022-08-18T16:48:00;12.75;;;4.22;;
64099;SDS011;50385;61.766;38.054;2022-08-18T16:50:28;14.55;;;3.97;;
64099;SDS011;50385;61.766;38.054;2022-08-18T16:52:56;11.00;;;4.50;;
64099;SDS011;50385;61.766;38.054;2022-08-18T16:55:23;7.13;;;4.50;;
64099;SDS011;50385;61.766;38.054;2022-08-18T16:57:51;6.03;;;4.32;;
64099;SDS011;50385;61.766;38.054;2022-08-18T17:00:41;34.40;;;4.95;;
64099;SDS011;50385;61.766;38.054;2022-08-18T17:03:28;38.15;;;6.35;;
64099;SDS011;50385;61.766;38.054;2022-08-18T17:06:16;61.28;;;6.70;;
64099;SDS011;50385;61.766;38.054;2022-08-18T17:08:46;70.72;;;6.13;;
64099;SDS011;50385;61.766;38.054;2022-08-18T17:11:17;37.33;;;5.90;;
64099;SDS011;50385;61.766;38.054;2022-08-18T17:13:46;60.45;;;7.43;;
64099;SDS011;50385;61.766;38.054;2022-08-18T17:16:14;55.72;;;7.60;;
64099;SDS011;50385;61.766;38.054;2022-08-18T17:18:43;39.88;;;6.43;;